Main page
Satellite images 15-day forecastsClimateMarine weather Cyclones Lightning AirportsFAQ Newsletter About
Weather : Europe Africa North America South America Asia Australia-Oceania Others
Languages Contact

Milan, Italy

Malpensa

latitude: 45-37N, longitude: 008-44E, elevation: 234 m


METAR: LIMC 020620Z 28004KT CAVOK 17/05 Q1012 NOSIG
short-TAF: out of date (7080 hours)
long-TAF: LIMC 020500Z 0206/0312 01007KT CAVOK

Time: 08:38 (06:38 UTC)

Current weather observation

The report was made 18 minutes ago, at 06:20 UTC  
Wind 04 kt from the West
Temperature 17°C
Humidity 45%
Pressure 1012 hPa
Visibility 10 km or more
no clouds below 1500 m and no cumulonimbus

Change units

Forecast

The report was made 1 hour and 13 minutes ago, at 05:25 UTC  
Forecast valid from 02 at 06 UTC to 03 at 12 UTC
Wind 07 kt from the North
Visibility 10 km or more
no clouds below 1500 m and no cumulonimbus
The information on this site is subject to a disclaimer
Weather : Europe Africa North America South America Asia Australia-Oceania Others
Satellite images 15-day forecastsClimateMarine weather Cyclones Lightning AirportsFAQ Languages Contact Newsletter About